sensor_id;sensor_type;location;lat;lon;timestamp;P1;durP1;ratioP1;P2;durP2;ratioP2
15831;SDS011;8016;49.928;9.372;2024-03-06T00:02:22;20.33;;;16.97;;
15831;SDS011;8016;49.928;9.372;2024-03-06T00:04:48;22.87;;;16.27;;
15831;SDS011;8016;49.928;9.372;2024-03-06T00:07:14;23.83;;;18.63;;
15831;SDS011;8016;49.928;9.372;2024-03-06T00:09:41;19.53;;;16.40;;
15831;SDS011;8016;49.928;9.372;2024-03-06T00:12:08;18.73;;;16.03;;
15831;SDS011;8016;49.928;9.372;2024-03-06T00:14:34;21.37;;;15.33;;
15831;SDS011;8016;49.928;9.372;2024-03-06T00:17:01;36.50;;;22.00;;
15831;SDS011;8016;49.928;9.372;2024-03-06T00:19:29;36.20;;;23.50;;
15831;SDS011;8016;49.928;9.372;2024-03-06T00:21:55;18.60;;;14.20;;
15831;SDS011;8016;49.928;9.372;2024-03-06T00:24:22;20.47;;;16.80;;
15831;SDS011;8016;49.928;9.372;2024-03-06T00:26:48;22.47;;;17.77;;
15831;SDS011;8016;49.928;9.372;2024-03-06T00:29:14;25.50;;;19.07;;
15831;SDS011;8016;49.928;9.372;2024-03-06T00:31:43;24.60;;;19.30;;
15831;SDS011;8016;49.928;9.372;2024-03-06T00:34:10;22.43;;;19.03;;
15831;SDS011;8016;49.928;9.372;2024-03-06T00:36:36;22.07;;;17.87;;
15831;SDS011;8016;49.928;9.372;2024-03-06T00:39:03;27.57;;;17.60;;
15831;SDS011;8016;49.928;9.372;2024-03-06T00:41:29;31.00;;;17.20;;
15831;SDS011;8016;49.928;9.372;2024-03-06T00:43:55;27.33;;;18.33;;
15831;SDS011;8016;49.928;9.372;2024-03-06T00:46:21;25.70;;;17.07;;
15831;SDS011;8016;49.928;9.372;2024-03-06T00:48:47;21.00;;;15.33;;
15831;SDS011;8016;49.928;9.372;2024-03-06T00:51:13;21.37;;;15.90;;
15831;SDS011;8016;49.928;9.372;2024-03-06T00:53:39;20.37;;;15.70;;
15831;SDS011;8016;49.928;9.372;2024-03-06T00:56:05;18.47;;;15.67;;
15831;SDS011;8016;49.928;9.372;2024-03-06T00:58:31;18.20;;;14.87;;
15831;SDS011;8016;49.928;9.372;2024-03-06T01:00:57;18.07;;;13.97;;
15831;SDS011;8016;49.928;9.372;2024-03-06T01:03:23;18.80;;;14.90;;
15831;SDS011;8016;49.928;9.372;2024-03-06T01:05:50;18.60;;;14.33;;
15831;SDS011;8016;49.928;9.372;2024-03-06T01:08:18;15.97;;;13.33;;
15831;SDS011;8016;49.928;9.372;2024-03-06T01:10:44;20.30;;;14.70;;
15831;SDS011;8016;49.928;9.372;2024-03-06T01:13:10;19.23;;;14.13;;
15831;SDS011;8016;49.928;9.372;2024-03-06T01:15:36;18.23;;;15.60;;
15831;SDS011;8016;49.928;9.372;2024-03-06T01:18:02;18.00;;;14.30;;
15831;SDS011;8016;49.928;9.372;2024-03-06T01:20:28;23.90;;;16.70;;
15831;SDS011;8016;49.928;9.372;2024-03-06T01:22:54;19.57;;;15.50;;
15831;SDS011;8016;49.928;9.372;2024-03-06T01:25:20;19.80;;;17.00;;
15831;SDS011;8016;49.928;9.372;2024-03-06T01:27:49;24.50;;;17.80;;
15831;SDS011;8016;49.928;9.372;2024-03-06T01:30:15;22.77;;;17.37;;
15831;SDS011;8016;49.928;9.372;2024-03-06T01:32:41;26.53;;;18.60;;
15831;SDS011;8016;49.928;9.372;2024-03-06T01:35:07;21.27;;;18.37;;
15831;SDS011;8016;49.928;9.372;2024-03-06T01:37:33;26.17;;;18.10;;
15831;SDS011;8016;49.928;9.372;2024-03-06T01:39:59;22.83;;;18.97;;
15831;SDS011;8016;49.928;9.372;2024-03-06T01:42:25;22.57;;;18.00;;
15831;SDS011;8016;49.928;9.372;2024-03-06T01:44:51;21.40;;;16.93;;
15831;SDS011;8016;49.928;9.372;2024-03-06T01:47:17;24.23;;;17.57;;
15831;SDS011;8016;49.928;9.372;2024-03-06T01:49:43;21.57;;;17.30;;
15831;SDS011;8016;49.928;9.372;2024-03-06T01:52:09;21.47;;;17.20;;
15831;SDS011;8016;49.928;9.372;2024-03-06T01:54:37;20.73;;;17.37;;
15831;SDS011;8016;49.928;9.372;2024-03-06T01:57:04;19.37;;;17.27;;
15831;SDS011;8016;49.928;9.372;2024-03-06T01:59:32;20.00;;;16.73;;
15831;SDS011;8016;49.928;9.372;2024-03-06T02:01:58;20.47;;;17.43;;
15831;SDS011;8016;49.928;9.372;2024-03-06T02:04:26;19.47;;;16.77;;
15831;SDS011;8016;49.928;9.372;2024-03-06T02:06:53;20.07;;;16.03;;
15831;SDS011;8016;49.928;9.372;2024-03-06T02:09:19;22.90;;;15.87;;
15831;SDS011;8016;49.928;9.372;2024-03-06T02:11:45;20.37;;;16.70;;
15831;SDS011;8016;49.928;9.372;2024-03-06T02:14:11;20.70;;;16.93;;
15831;SDS011;8016;49.928;9.372;2024-03-06T02:16:37;21.00;;;18.70;;
15831;SDS011;8016;49.928;9.372;2024-03-06T02:19:06;23.03;;;19.47;;
15831;SDS011;8016;49.928;9.372;2024-03-06T02:21:32;25.10;;;19.30;;
15831;SDS011;8016;49.928;9.372;2024-03-06T02:23:58;23.33;;;18.57;;
15831;SDS011;8016;49.928;9.372;2024-03-06T02:26:24;20.23;;;17.97;;
15831;SDS011;8016;49.928;9.372;2024-03-06T02:28:54;23.17;;;18.33;;
15831;SDS011;8016;49.928;9.372;2024-03-06T02:31:20;22.87;;;19.60;;
15831;SDS011;8016;49.928;9.372;2024-03-06T02:33:47;23.97;;;18.93;;
15831;SDS011;8016;49.928;9.372;2024-03-06T02:36:14;19.77;;;15.43;;
15831;SDS011;8016;49.928;9.372;2024-03-06T02:38:41;21.97;;;15.10;;
15831;SDS011;8016;49.928;9.372;2024-03-06T02:41:08;43.87;;;16.17;;
15831;SDS011;8016;49.928;9.372;2024-03-06T02:43:34;26.00;;;15.30;;
15831;SDS011;8016;49.928;9.372;2024-03-06T02:46:00;20.10;;;16.57;;
15831;SDS011;8016;49.928;9.372;2024-03-06T02:48:26;27.13;;;16.10;;
15831;SDS011;8016;49.928;9.372;2024-03-06T02:50:52;30.73;;;16.27;;
15831;SDS011;8016;49.928;9.372;2024-03-06T02:53:18;47.43;;;15.27;;
15831;SDS011;8016;49.928;9.372;2024-03-06T02:55:44;43.27;;;15.63;;
15831;SDS011;8016;49.928;9.372;2024-03-06T02:58:10;20.67;;;14.83;;
15831;SDS011;8016;49.928;9.372;2024-03-06T03:00:36;23.07;;;16.33;;
15831;SDS011;8016;49.928;9.372;2024-03-06T03:03:02;22.47;;;17.27;;
15831;SDS011;8016;49.928;9.372;2024-03-06T03:05:28;20.60;;;14.90;;
15831;SDS011;8016;49.928;9.372;2024-03-06T03:07:53;24.83;;;15.97;;
15831;SDS011;8016;49.928;9.372;2024-03-06T03:10:19;28.00;;;15.73;;
15831;SDS011;8016;49.928;9.372;2024-03-06T03:12:45;24.40;;;14.80;;
15831;SDS011;8016;49.928;9.372;2024-03-06T03:15:11;35.50;;;15.83;;
15831;SDS011;8016;49.928;9.372;2024-03-06T03:17:37;19.73;;;15.07;;
15831;SDS011;8016;49.928;9.372;2024-03-06T03:20:03;21.00;;;15.03;;
15831;SDS011;8016;49.928;9.372;2024-03-06T03:22:39;20.80;;;15.63;;
15831;SDS011;8016;49.928;9.372;2024-03-06T03:25:11;19.00;;;14.50;;
15831;SDS011;8016;49.928;9.372;2024-03-06T03:27:38;18.37;;;14.50;;
15831;SDS011;8016;49.928;9.372;2024-03-06T03:30:08;16.03;;;13.60;;
15831;SDS011;8016;49.928;9.372;2024-03-06T03:32:34;18.93;;;15.47;;
15831;SDS011;8016;49.928;9.372;2024-03-06T03:35:00;18.93;;;14.70;;
15831;SDS011;8016;49.928;9.372;2024-03-06T03:37:26;20.47;;;15.97;;
15831;SDS011;8016;49.928;9.372;2024-03-06T03:39:53;18.27;;;14.00;;
15831;SDS011;8016;49.928;9.372;2024-03-06T03:42:19;18.43;;;13.73;;
15831;SDS011;8016;49.928;9.372;2024-03-06T03:44:45;17.93;;;14.00;;
15831;SDS011;8016;49.928;9.372;2024-03-06T03:47:11;24.90;;;15.33;;
15831;SDS011;8016;49.928;9.372;2024-03-06T03:49:37;20.43;;;14.70;;
15831;SDS011;8016;49.928;9.372;2024-03-06T03:52:03;20.63;;;14.47;;
15831;SDS011;8016;49.928;9.372;2024-03-06T03:54:29;20.50;;;15.23;;
15831;SDS011;8016;49.928;9.372;2024-03-06T03:56:55;25.90;;;16.97;;
15831;SDS011;8016;49.928;9.372;2024-03-06T03:59:24;24.93;;;16.57;;
15831;SDS011;8016;49.928;9.372;2024-03-06T04:01:50;20.20;;;15.70;;
15831;SDS011;8016;49.928;9.372;2024-03-06T04:04:16;23.97;;;19.93;;
15831;SDS011;8016;49.928;9.372;2024-03-06T04:06:42;26.30;;;21.13;;
15831;SDS011;8016;49.928;9.372;2024-03-06T04:09:08;26.57;;;22.30;;
15831;SDS011;8016;49.928;9.372;2024-03-06T04:11:36;29.87;;;23.67;;
15831;SDS011;8016;49.928;9.372;2024-03-06T04:14:02;33.53;;;24.90;;
15831;SDS011;8016;49.928;9.372;2024-03-06T04:16:28;31.03;;;23.53;;
15831;SDS011;8016;49.928;9.372;2024-03-06T04:18:54;32.73;;;23.63;;
15831;SDS011;8016;49.928;9.372;2024-03-06T04:21:20;29.93;;;23.83;;
15831;SDS011;8016;49.928;9.372;2024-03-06T04:23:47;30.33;;;24.83;;
15831;SDS011;8016;49.928;9.372;2024-03-06T04:26:13;30.20;;;23.00;;
15831;SDS011;8016;49.928;9.372;2024-03-06T04:28:39;28.50;;;22.60;;
15831;SDS011;8016;49.928;9.372;2024-03-06T04:31:05;31.10;;;25.00;;
15831;SDS011;8016;49.928;9.372;2024-03-06T04:33:32;31.43;;;25.43;;
15831;SDS011;8016;49.928;9.372;2024-03-06T04:35:58;31.33;;;23.77;;
15831;SDS011;8016;49.928;9.372;2024-03-06T04:38:23;34.50;;;26.40;;
15831;SDS011;8016;49.928;9.372;2024-03-06T04:40:50;32.77;;;25.90;;
15831;SDS011;8016;49.928;9.372;2024-03-06T04:43:16;31.73;;;25.43;;
15831;SDS011;8016;49.928;9.372;2024-03-06T04:45:42;29.93;;;24.23;;
15831;SDS011;8016;49.928;9.372;2024-03-06T04:48:08;31.60;;;25.07;;
15831;SDS011;8016;49.928;9.372;2024-03-06T04:50:34;31.27;;;24.40;;
15831;SDS011;8016;49.928;9.372;2024-03-06T04:53:00;31.27;;;25.43;;
15831;SDS011;8016;49.928;9.372;2024-03-06T04:55:26;33.10;;;24.20;;
15831;SDS011;8016;49.928;9.372;2024-03-06T04:57:52;28.13;;;23.77;;
15831;SDS011;8016;49.928;9.372;2024-03-06T05:00:18;33.17;;;25.60;;
15831;SDS011;8016;49.928;9.372;2024-03-06T05:02:44;37.03;;;27.73;;
15831;SDS011;8016;49.928;9.372;2024-03-06T05:05:10;37.70;;;29.10;;
15831;SDS011;8016;49.928;9.372;2024-03-06T05:07:36;34.53;;;26.80;;
15831;SDS011;8016;49.928;9.372;2024-03-06T05:10:02;36.00;;;25.73;;
15831;SDS011;8016;49.928;9.372;2024-03-06T05:12:28;37.53;;;26.03;;
15831;SDS011;8016;49.928;9.372;2024-03-06T05:14:55;36.27;;;27.00;;
15831;SDS011;8016;49.928;9.372;2024-03-06T05:17:21;33.73;;;25.20;;
15831;SDS011;8016;49.928;9.372;2024-03-06T05:19:48;32.67;;;25.70;;
15831;SDS011;8016;49.928;9.372;2024-03-06T05:22:14;35.10;;;26.03;;
15831;SDS011;8016;49.928;9.372;2024-03-06T05:24:41;33.57;;;25.57;;
15831;SDS011;8016;49.928;9.372;2024-03-06T05:27:07;33.33;;;25.37;;
15831;SDS011;8016;49.928;9.372;2024-03-06T05:29:35;34.97;;;24.53;;
15831;SDS011;8016;49.928;9.372;2024-03-06T05:32:01;30.90;;;23.57;;
15831;SDS011;8016;49.928;9.372;2024-03-06T05:34:28;34.17;;;24.07;;
15831;SDS011;8016;49.928;9.372;2024-03-06T05:36:54;38.27;;;27.00;;
15831;SDS011;8016;49.928;9.372;2024-03-06T05:39:20;35.50;;;24.97;;
15831;SDS011;8016;49.928;9.372;2024-03-06T05:41:46;35.77;;;25.90;;
15831;SDS011;8016;49.928;9.372;2024-03-06T05:44:12;39.17;;;27.33;;
15831;SDS011;8016;49.928;9.372;2024-03-06T05:46:38;37.93;;;27.73;;
15831;SDS011;8016;49.928;9.372;2024-03-06T05:49:04;34.33;;;25.80;;
15831;SDS011;8016;49.928;9.372;2024-03-06T05:51:30;34.87;;;26.47;;
15831;SDS011;8016;49.928;9.372;2024-03-06T05:53:56;34.67;;;26.63;;
15831;SDS011;8016;49.928;9.372;2024-03-06T05:56:22;32.70;;;24.87;;
15831;SDS011;8016;49.928;9.372;2024-03-06T05:58:48;33.30;;;25.83;;
15831;SDS011;8016;49.928;9.372;2024-03-06T06:01:14;34.73;;;25.27;;
15831;SDS011;8016;49.928;9.372;2024-03-06T06:03:41;31.40;;;23.67;;
15831;SDS011;8016;49.928;9.372;2024-03-06T06:06:07;34.30;;;24.30;;
15831;SDS011;8016;49.928;9.372;2024-03-06T06:08:39;34.53;;;24.37;;
15831;SDS011;8016;49.928;9.372;2024-03-06T06:11:05;49.60;;;37.80;;
15831;SDS011;8016;49.928;9.372;2024-03-06T06:13:32;36.27;;;26.53;;
15831;SDS011;8016;49.928;9.372;2024-03-06T06:15:58;42.80;;;30.90;;
15831;SDS011;8016;49.928;9.372;2024-03-06T06:18:27;36.53;;;26.53;;
15831;SDS011;8016;49.928;9.372;2024-03-06T06:20:53;39.20;;;25.77;;
15831;SDS011;8016;49.928;9.372;2024-03-06T06:23:19;37.30;;;25.40;;
15831;SDS011;8016;49.928;9.372;2024-03-06T06:25:49;36.80;;;25.87;;
15831;SDS011;8016;49.928;9.372;2024-03-06T06:28:15;39.47;;;26.17;;
15831;SDS011;8016;49.928;9.372;2024-03-06T06:30:41;40.10;;;26.10;;
15831;SDS011;8016;49.928;9.372;2024-03-06T06:33:07;40.07;;;28.27;;
15831;SDS011;8016;49.928;9.372;2024-03-06T06:35:33;41.03;;;28.00;;
15831;SDS011;8016;49.928;9.372;2024-03-06T06:38:00;47.23;;;27.33;;
15831;SDS011;8016;49.928;9.372;2024-03-06T06:40:26;63.47;;;29.93;;
15831;SDS011;8016;49.928;9.372;2024-03-06T06:42:53;46.03;;;28.63;;
15831;SDS011;8016;49.928;9.372;2024-03-06T06:45:19;53.47;;;34.10;;
15831;SDS011;8016;49.928;9.372;2024-03-06T06:47:46;47.03;;;29.10;;
15831;SDS011;8016;49.928;9.372;2024-03-06T06:50:12;42.43;;;28.07;;
15831;SDS011;8016;49.928;9.372;2024-03-06T06:52:38;52.07;;;33.13;;
15831;SDS011;8016;49.928;9.372;2024-03-06T06:55:06;50.63;;;33.63;;
15831;SDS011;8016;49.928;9.372;2024-03-06T06:57:34;48.67;;;31.10;;
15831;SDS011;8016;49.928;9.372;2024-03-06T07:00:00;45.53;;;33.97;;
15831;SDS011;8016;49.928;9.372;2024-03-06T07:02:28;40.33;;;28.80;;
15831;SDS011;8016;49.928;9.372;2024-03-06T07:04:54;48.00;;;31.93;;
15831;SDS011;8016;49.928;9.372;2024-03-06T07:07:20;39.67;;;27.20;;
15831;SDS011;8016;49.928;9.372;2024-03-06T07:09:46;39.53;;;27.63;;
15831;SDS011;8016;49.928;9.372;2024-03-06T07:12:13;35.20;;;27.23;;
15831;SDS011;8016;49.928;9.372;2024-03-06T07:14:39;41.70;;;30.40;;
15831;SDS011;8016;49.928;9.372;2024-03-06T07:17:05;45.83;;;32.13;;
15831;SDS011;8016;49.928;9.372;2024-03-06T07:19:31;45.43;;;33.33;;
15831;SDS011;8016;49.928;9.372;2024-03-06T07:21:57;51.03;;;35.37;;
15831;SDS011;8016;49.928;9.372;2024-03-06T07:24:23;42.77;;;30.43;;
15831;SDS011;8016;49.928;9.372;2024-03-06T07:26:49;60.30;;;42.37;;
15831;SDS011;8016;49.928;9.372;2024-03-06T07:29:15;53.73;;;38.13;;
15831;SDS011;8016;49.928;9.372;2024-03-06T07:31:41;48.07;;;34.40;;
15831;SDS011;8016;49.928;9.372;2024-03-06T07:34:08;44.33;;;32.03;;
15831;SDS011;8016;49.928;9.372;2024-03-06T07:36:34;35.80;;;25.40;;
15831;SDS011;8016;49.928;9.372;2024-03-06T07:39:01;35.57;;;26.50;;
15831;SDS011;8016;49.928;9.372;2024-03-06T07:41:27;37.00;;;26.63;;
15831;SDS011;8016;49.928;9.372;2024-03-06T07:43:53;44.90;;;32.53;;
15831;SDS011;8016;49.928;9.372;2024-03-06T07:46:19;47.33;;;34.40;;
15831;SDS011;8016;49.928;9.372;2024-03-06T07:48:45;52.53;;;36.50;;
15831;SDS011;8016;49.928;9.372;2024-03-06T07:51:11;49.27;;;35.67;;
15831;SDS011;8016;49.928;9.372;2024-03-06T07:53:38;41.13;;;29.33;;
15831;SDS011;8016;49.928;9.372;2024-03-06T07:56:04;41.03;;;30.90;;
15831;SDS011;8016;49.928;9.372;2024-03-06T07:58:30;38.70;;;27.33;;
15831;SDS011;8016;49.928;9.372;2024-03-06T08:00:56;36.80;;;27.33;;
15831;SDS011;8016;49.928;9.372;2024-03-06T08:03:24;38.40;;;26.10;;
15831;SDS011;8016;49.928;9.372;2024-03-06T08:05:53;39.70;;;26.80;;
15831;SDS011;8016;49.928;9.372;2024-03-06T08:08:19;39.37;;;28.37;;
15831;SDS011;8016;49.928;9.372;2024-03-06T08:10:45;36.47;;;27.67;;
15831;SDS011;8016;49.928;9.372;2024-03-06T08:13:11;36.37;;;25.53;;
15831;SDS011;8016;49.928;9.372;2024-03-06T08:15:37;27.30;;;20.47;;
15831;SDS011;8016;49.928;9.372;2024-03-06T08:18:09;25.47;;;19.20;;
15831;SDS011;8016;49.928;9.372;2024-03-06T08:20:35;26.53;;;19.47;;
15831;SDS011;8016;49.928;9.372;2024-03-06T08:23:01;22.73;;;19.10;;
15831;SDS011;8016;49.928;9.372;2024-03-06T08:25:27;20.73;;;16.30;;
15831;SDS011;8016;49.928;9.372;2024-03-06T08:27:53;25.73;;;17.23;;
15831;SDS011;8016;49.928;9.372;2024-03-06T08:30:19;21.27;;;17.00;;
15831;SDS011;8016;49.928;9.372;2024-03-06T08:32:45;23.50;;;16.63;;
15831;SDS011;8016;49.928;9.372;2024-03-06T08:35:13;22.63;;;17.77;;
15831;SDS011;8016;49.928;9.372;2024-03-06T08:37:40;25.60;;;18.43;;
15831;SDS011;8016;49.928;9.372;2024-03-06T08:40:07;20.83;;;17.23;;
15831;SDS011;8016;49.928;9.372;2024-03-06T08:42:35;22.00;;;17.13;;
15831;SDS011;8016;49.928;9.372;2024-03-06T08:45:01;22.33;;;17.37;;
15831;SDS011;8016;49.928;9.372;2024-03-06T08:47:27;20.93;;;17.07;;
15831;SDS011;8016;49.928;9.372;2024-03-06T08:49:53;21.83;;;16.87;;
15831;SDS011;8016;49.928;9.372;2024-03-06T08:52:20;21.43;;;16.47;;
15831;SDS011;8016;49.928;9.372;2024-03-06T08:54:46;23.93;;;18.40;;
15831;SDS011;8016;49.928;9.372;2024-03-06T08:57:12;22.00;;;17.90;;
15831;SDS011;8016;49.928;9.372;2024-03-06T08:59:38;21.57;;;17.07;;
15831;SDS011;8016;49.928;9.372;2024-03-06T09:02:13;24.93;;;19.13;;
15831;SDS011;8016;49.928;9.372;2024-03-06T09:04:40;26.33;;;18.93;;
15831;SDS011;8016;49.928;9.372;2024-03-06T09:07:06;25.40;;;19.03;;
15831;SDS011;8016;49.928;9.372;2024-03-06T09:09:33;22.13;;;17.53;;
15831;SDS011;8016;49.928;9.372;2024-03-06T09:11:59;21.47;;;17.03;;
15831;SDS011;8016;49.928;9.372;2024-03-06T09:14:25;21.83;;;17.13;;
15831;SDS011;8016;49.928;9.372;2024-03-06T09:16:51;21.70;;;17.83;;
15831;SDS011;8016;49.928;9.372;2024-03-06T09:19:19;17.70;;;13.90;;
15831;SDS011;8016;49.928;9.372;2024-03-06T09:21:45;17.83;;;14.10;;
15831;SDS011;8016;49.928;9.372;2024-03-06T09:24:11;40.80;;;29.20;;
15831;SDS011;8016;49.928;9.372;2024-03-06T09:26:36;22.97;;;19.43;;
15831;SDS011;8016;49.928;9.372;2024-03-06T09:29:02;19.13;;;15.90;;
15831;SDS011;8016;49.928;9.372;2024-03-06T09:31:29;21.50;;;16.80;;
15831;SDS011;8016;49.928;9.372;2024-03-06T09:33:55;23.27;;;20.63;;
15831;SDS011;8016;49.928;9.372;2024-03-06T09:36:21;19.67;;;16.83;;
15831;SDS011;8016;49.928;9.372;2024-03-06T09:38:46;20.20;;;16.43;;
15831;SDS011;8016;49.928;9.372;2024-03-06T09:41:12;22.63;;;16.83;;
15831;SDS011;8016;49.928;9.372;2024-03-06T09:43:38;23.10;;;17.87;;
15831;SDS011;8016;49.928;9.372;2024-03-06T09:46:06;22.23;;;17.57;;
15831;SDS011;8016;49.928;9.372;2024-03-06T09:48:33;22.80;;;18.37;;
15831;SDS011;8016;49.928;9.372;2024-03-06T09:51:02;24.73;;;18.10;;
15831;SDS011;8016;49.928;9.372;2024-03-06T09:53:28;22.50;;;17.80;;
15831;SDS011;8016;49.928;9.372;2024-03-06T09:55:55;22.67;;;17.97;;
15831;SDS011;8016;49.928;9.372;2024-03-06T09:58:22;24.20;;;18.33;;
15831;SDS011;8016;49.928;9.372;2024-03-06T10:00:49;21.73;;;18.20;;
15831;SDS011;8016;49.928;9.372;2024-03-06T10:03:16;24.17;;;18.80;;
15831;SDS011;8016;49.928;9.372;2024-03-06T10:05:42;23.90;;;18.77;;
15831;SDS011;8016;49.928;9.372;2024-03-06T10:08:08;25.70;;;19.77;;
15831;SDS011;8016;49.928;9.372;2024-03-06T10:10:35;23.60;;;19.23;;
15831;SDS011;8016;49.928;9.372;2024-03-06T10:13:01;25.30;;;19.07;;
15831;SDS011;8016;49.928;9.372;2024-03-06T10:15:28;27.73;;;20.67;;
15831;SDS011;8016;49.928;9.372;2024-03-06T10:18:12;28.20;;;21.23;;
15831;SDS011;8016;49.928;9.372;2024-03-06T10:20:39;27.57;;;20.63;;
15831;SDS011;8016;49.928;9.372;2024-03-06T10:23:05;18.73;;;16.07;;
15831;SDS011;8016;49.928;9.372;2024-03-06T10:25:32;21.83;;;15.90;;
15831;SDS011;8016;49.928;9.372;2024-03-06T10:28:11;20.60;;;15.87;;
15831;SDS011;8016;49.928;9.372;2024-03-06T10:30:37;33.90;;;20.73;;
15831;SDS011;8016;49.928;9.372;2024-03-06T10:33:07;27.97;;;21.23;;
15831;SDS011;8016;49.928;9.372;2024-03-06T10:35:33;24.30;;;19.23;;
15831;SDS011;8016;49.928;9.372;2024-03-06T10:38:00;20.00;;;15.53;;
15831;SDS011;8016;49.928;9.372;2024-03-06T10:40:32;22.90;;;18.13;;
15831;SDS011;8016;49.928;9.372;2024-03-06T10:42:59;25.70;;;19.87;;
15831;SDS011;8016;49.928;9.372;2024-03-06T10:45:47;25.60;;;19.77;;
15831;SDS011;8016;49.928;9.372;2024-03-06T10:48:13;23.57;;;18.37;;
15831;SDS011;8016;49.928;9.372;2024-03-06T10:50:39;22.10;;;17.77;;
15831;SDS011;8016;49.928;9.372;2024-03-06T10:53:09;26.10;;;18.00;;
15831;SDS011;8016;49.928;9.372;2024-03-06T10:55:35;25.53;;;19.10;;
15831;SDS011;8016;49.928;9.372;2024-03-06T10:58:03;25.53;;;20.13;;
15831;SDS011;8016;49.928;9.372;2024-03-06T11:00:33;27.80;;;20.23;;
15831;SDS011;8016;49.928;9.372;2024-03-06T11:03:00;24.90;;;18.37;;
15831;SDS011;8016;49.928;9.372;2024-03-06T11:05:32;24.93;;;20.00;;
15831;SDS011;8016;49.928;9.372;2024-03-06T11:07:58;31.10;;;22.00;;
15831;SDS011;8016;49.928;9.372;2024-03-06T11:10:31;26.53;;;19.00;;
15831;SDS011;8016;49.928;9.372;2024-03-06T11:12:57;25.40;;;19.03;;
15831;SDS011;8016;49.928;9.372;2024-03-06T11:15:23;24.23;;;18.77;;
15831;SDS011;8016;49.928;9.372;2024-03-06T11:17:50;25.67;;;18.73;;
15831;SDS011;8016;49.928;9.372;2024-03-06T11:28:09;25.27;;;20.23;;
15831;SDS011;8016;49.928;9.372;2024-03-06T11:30:44;27.07;;;20.10;;
15831;SDS011;8016;49.928;9.372;2024-03-06T11:33:12;22.40;;;16.77;;
15831;SDS011;8016;49.928;9.372;2024-03-06T11:35:41;22.97;;;17.07;;
15831;SDS011;8016;49.928;9.372;2024-03-06T11:38:16;24.37;;;17.43;;
15831;SDS011;8016;49.928;9.372;2024-03-06T11:40:44;21.80;;;16.23;;
15831;SDS011;8016;49.928;9.372;2024-03-06T11:43:23;21.63;;;16.60;;
15831;SDS011;8016;49.928;9.372;2024-03-06T11:45:50;25.73;;;16.33;;
15831;SDS011;8016;49.928;9.372;2024-03-06T11:48:18;23.73;;;17.50;;
15831;SDS011;8016;49.928;9.372;2024-03-06T11:50:46;21.77;;;15.93;;
15831;SDS011;8016;49.928;9.372;2024-03-06T11:53:13;18.50;;;14.50;;
15831;SDS011;8016;49.928;9.372;2024-03-06T11:55:39;17.10;;;12.93;;
15831;SDS011;8016;49.928;9.372;2024-03-06T11:58:05;20.03;;;15.77;;
15831;SDS011;8016;49.928;9.372;2024-03-06T12:00:33;19.83;;;16.88;;
15831;SDS011;8016;49.928;9.372;2024-03-06T12:02:59;27.23;;;16.33;;
15831;SDS011;8016;49.928;9.372;2024-03-06T12:05:25;21.37;;;15.97;;
15831;SDS011;8016;49.928;9.372;2024-03-06T12:07:52;19.23;;;14.47;;
15831;SDS011;8016;49.928;9.372;2024-03-06T12:10:19;18.63;;;13.97;;
15831;SDS011;8016;49.928;9.372;2024-03-06T12:12:45;17.53;;;13.90;;
15831;SDS011;8016;49.928;9.372;2024-03-06T12:15:12;18.77;;;14.43;;
15831;SDS011;8016;49.928;9.372;2024-03-06T12:17:45;19.13;;;14.27;;
15831;SDS011;8016;49.928;9.372;2024-03-06T12:20:12;18.27;;;13.93;;
15831;SDS011;8016;49.928;9.372;2024-03-06T12:22:51;18.70;;;14.67;;
15831;SDS011;8016;49.928;9.372;2024-03-06T12:25:20;18.87;;;15.07;;
15831;SDS011;8016;49.928;9.372;2024-03-06T12:27:47;17.47;;;14.07;;
15831;SDS011;8016;49.928;9.372;2024-03-06T12:30:15;17.50;;;14.17;;
15831;SDS011;8016;49.928;9.372;2024-03-06T12:32:42;16.23;;;14.13;;
15831;SDS011;8016;49.928;9.372;2024-03-06T12:35:08;18.37;;;14.27;;
15831;SDS011;8016;49.928;9.372;2024-03-06T12:37:35;17.17;;;13.47;;
15831;SDS011;8016;49.928;9.372;2024-03-06T12:40:01;18.63;;;13.30;;
15831;SDS011;8016;49.928;9.372;2024-03-06T12:42:29;16.53;;;13.10;;
15831;SDS011;8016;49.928;9.372;2024-03-06T12:44:55;14.93;;;11.83;;
15831;SDS011;8016;49.928;9.372;2024-03-06T12:47:22;17.17;;;12.87;;
15831;SDS011;8016;49.928;9.372;2024-03-06T12:49:48;25.00;;;16.43;;
15831;SDS011;8016;49.928;9.372;2024-03-06T12:52:15;19.83;;;13.93;;
15831;SDS011;8016;49.928;9.372;2024-03-06T12:54:41;17.70;;;13.23;;
15831;SDS011;8016;49.928;9.372;2024-03-06T12:57:07;20.50;;;13.87;;
15831;SDS011;8016;49.928;9.372;2024-03-06T12:59:33;16.90;;;13.60;;
15831;SDS011;8016;49.928;9.372;2024-03-06T13:01:59;20.50;;;13.57;;
15831;SDS011;8016;49.928;9.372;2024-03-06T13:04:25;17.50;;;13.03;;
15831;SDS011;8016;49.928;9.372;2024-03-06T13:06:51;15.90;;;12.77;;
15831;SDS011;8016;49.928;9.372;2024-03-06T13:09:17;17.87;;;13.37;;
15831;SDS011;8016;49.928;9.372;2024-03-06T13:11:43;15.70;;;13.33;;
15831;SDS011;8016;49.928;9.372;2024-03-06T13:14:09;15.50;;;12.83;;
15831;SDS011;8016;49.928;9.372;2024-03-06T13:16:36;23.43;;;13.03;;
15831;SDS011;8016;49.928;9.372;2024-03-06T13:19:02;15.20;;;11.70;;
15831;SDS011;8016;49.928;9.372;2024-03-06T13:21:28;16.00;;;12.53;;
15831;SDS011;8016;49.928;9.372;2024-03-06T13:23:54;18.77;;;12.60;;
15831;SDS011;8016;49.928;9.372;2024-03-06T13:26:20;14.20;;;11.50;;
15831;SDS011;8016;49.928;9.372;2024-03-06T13:28:47;16.90;;;13.13;;
15831;SDS011;8016;49.928;9.372;2024-03-06T13:31:13;16.47;;;12.97;;
15831;SDS011;8016;49.928;9.372;2024-03-06T13:33:39;15.07;;;12.13;;
15831;SDS011;8016;49.928;9.372;2024-03-06T13:36:05;15.13;;;12.33;;
15831;SDS011;8016;49.928;9.372;2024-03-06T13:38:33;19.27;;;12.57;;
15831;SDS011;8016;49.928;9.372;2024-03-06T13:40:59;15.13;;;11.50;;
15831;SDS011;8016;49.928;9.372;2024-03-06T13:43:27;14.07;;;11.20;;
15831;SDS011;8016;49.928;9.372;2024-03-06T13:45:53;16.63;;;13.13;;
15831;SDS011;8016;49.928;9.372;2024-03-06T13:48:20;17.77;;;14.00;;
15831;SDS011;8016;49.928;9.372;2024-03-06T13:50:47;18.43;;;13.60;;
15831;SDS011;8016;49.928;9.372;2024-03-06T13:53:13;17.93;;;13.43;;
15831;SDS011;8016;49.928;9.372;2024-03-06T13:55:39;18.53;;;13.47;;
15831;SDS011;8016;49.928;9.372;2024-03-06T13:58:05;18.73;;;12.90;;
15831;SDS011;8016;49.928;9.372;2024-03-06T14:00:32;16.43;;;11.70;;
15831;SDS011;8016;49.928;9.372;2024-03-06T14:02:59;17.87;;;13.53;;
15831;SDS011;8016;49.928;9.372;2024-03-06T14:05:25;18.13;;;13.90;;
15831;SDS011;8016;49.928;9.372;2024-03-06T14:07:52;19.10;;;14.83;;
15831;SDS011;8016;49.928;9.372;2024-03-06T14:10:18;17.50;;;13.60;;
15831;SDS011;8016;49.928;9.372;2024-03-06T14:12:45;20.13;;;13.77;;
15831;SDS011;8016;49.928;9.372;2024-03-06T14:15:11;15.27;;;12.07;;
15831;SDS011;8016;49.928;9.372;2024-03-06T14:17:37;14.83;;;11.77;;
15831;SDS011;8016;49.928;9.372;2024-03-06T14:20:04;18.53;;;13.80;;
15831;SDS011;8016;49.928;9.372;2024-03-06T14:22:30;18.53;;;13.73;;
15831;SDS011;8016;49.928;9.372;2024-03-06T14:24:56;16.20;;;12.93;;
15831;SDS011;8016;49.928;9.372;2024-03-06T14:27:22;14.87;;;11.57;;
15831;SDS011;8016;49.928;9.372;2024-03-06T14:29:48;20.87;;;17.63;;
15831;SDS011;8016;49.928;9.372;2024-03-06T14:32:14;14.73;;;12.27;;
15831;SDS011;8016;49.928;9.372;2024-03-06T14:34:40;20.20;;;13.73;;
15831;SDS011;8016;49.928;9.372;2024-03-06T14:37:08;19.90;;;13.73;;
15831;SDS011;8016;49.928;9.372;2024-03-06T14:39:34;21.10;;;14.63;;